sensor_id;sensor_type;location;lat;lon;timestamp;pressure;altitude;pressure_sealevel;temperature
44429;BMP180;30134;47.866;-4.222;2023-09-19T00:00:38;101139.00;;;24.90
44429;BMP180;30134;47.866;-4.222;2023-09-19T00:03:06;101131.00;;;25.00
44429;BMP180;30134;47.866;-4.222;2023-09-19T00:05:36;101134.00;;;25.00
44429;BMP180;30134;47.866;-4.222;2023-09-19T00:08:02;101136.00;;;24.90
44429;BMP180;30134;47.866;-4.222;2023-09-19T00:10:30;101126.00;;;25.00
44429;BMP180;30134;47.866;-4.222;2023-09-19T00:13:00;101124.00;;;25.00
44429;BMP180;30134;47.866;-4.222;2023-09-19T00:15:39;101127.00;;;24.90
44429;BMP180;30134;47.866;-4.222;2023-09-19T00:18:07;101123.00;;;24.90
44429;BMP180;30134;47.866;-4.222;2023-09-19T00:20:38;101123.00;;;24.90
44429;BMP180;30134;47.866;-4.222;2023-09-19T00:23:05;101126.00;;;24.90
44429;BMP180;30134;47.866;-4.222;2023-09-19T00:25:31;101128.00;;;24.90
44429;BMP180;30134;47.866;-4.222;2023-09-19T00:28:01;101122.00;;;24.90
44429;BMP180;30134;47.866;-4.222;2023-09-19T00:30:28;101130.00;;;24.80
44429;BMP180;30134;47.866;-4.222;2023-09-19T00:32:54;101124.00;;;24.90
44429;BMP180;30134;47.866;-4.222;2023-09-19T00:35:23;101133.00;;;24.90
44429;BMP180;30134;47.866;-4.222;2023-09-19T00:37:53;101121.00;;;24.90
44429;BMP180;30134;47.866;-4.222;2023-09-19T00:40:20;101128.00;;;24.90
44429;BMP180;30134;47.866;-4.222;2023-09-19T00:42:48;101119.00;;;24.90
44429;BMP180;30134;47.866;-4.222;2023-09-19T00:45:17;101127.00;;;24.80
44429;BMP180;30134;47.866;-4.222;2023-09-19T00:47:51;101124.00;;;24.90
44429;BMP180;30134;47.866;-4.222;2023-09-19T00:50:21;101117.00;;;24.90
44429;BMP180;30134;47.866;-4.222;2023-09-19T00:52:49;101122.00;;;24.90
44429;BMP180;30134;47.866;-4.222;2023-09-19T00:55:16;101121.00;;;24.80
44429;BMP180;30134;47.866;-4.222;2023-09-19T00:57:46;101112.00;;;24.90
44429;BMP180;30134;47.866;-4.222;2023-09-19T01:00:26;101111.00;;;24.90
44429;BMP180;30134;47.866;-4.222;2023-09-19T01:02:52;101109.00;;;24.90
44429;BMP180;30134;47.866;-4.222;2023-09-19T01:05:18;101110.00;;;24.80
44429;BMP180;30134;47.866;-4.222;2023-09-19T01:07:44;101112.00;;;24.90
44429;BMP180;30134;47.866;-4.222;2023-09-19T01:10:16;101105.00;;;24.80
44429;BMP180;30134;47.866;-4.222;2023-09-19T01:15:57;101112.00;;;24.80
44429;BMP180;30134;47.866;-4.222;2023-09-19T01:27:40;101099.00;;;24.90
44429;BMP180;30134;47.866;-4.222;2023-09-19T01:30:21;101103.00;;;24.80
44429;BMP180;30134;47.866;-4.222;2023-09-19T01:32:53;101106.00;;;24.90
44429;BMP180;30134;47.866;-4.222;2023-09-19T01:35:19;101105.00;;;24.90
44429;BMP180;30134;47.866;-4.222;2023-09-19T01:37:45;101111.00;;;24.80
44429;BMP180;30134;47.866;-4.222;2023-09-19T01:40:18;101111.00;;;24.80
44429;BMP180;30134;47.866;-4.222;2023-09-19T01:46:13;101125.00;;;24.80
44429;BMP180;30134;47.866;-4.222;2023-09-19T01:52:30;101118.00;;;24.80
44429;BMP180;30134;47.866;-4.222;2023-09-19T01:54:40;101108.00;;;24.80
44429;BMP180;30134;47.866;-4.222;2023-09-19T01:59:57;101095.00;;;24.90
44429;BMP180;30134;47.866;-4.222;2023-09-19T02:02:25;101094.00;;;24.80
44429;BMP180;30134;47.866;-4.222;2023-09-19T02:04:51;101090.00;;;24.90
44429;BMP180;30134;47.866;-4.222;2023-09-19T02:07:18;101089.00;;;24.80
44429;BMP180;30134;47.866;-4.222;2023-09-19T02:09:44;101083.00;;;24.80
44429;BMP180;30134;47.866;-4.222;2023-09-19T02:12:10;101085.00;;;24.90
44429;BMP180;30134;47.866;-4.222;2023-09-19T02:14:36;101079.00;;;24.80
44429;BMP180;30134;47.866;-4.222;2023-09-19T02:17:03;101081.00;;;24.90
44429;BMP180;30134;47.866;-4.222;2023-09-19T02:19:35;101087.00;;;24.90
44429;BMP180;30134;47.866;-4.222;2023-09-19T02:22:04;101085.00;;;24.70
44429;BMP180;30134;47.866;-4.222;2023-09-19T02:24:37;101092.00;;;24.90
44429;BMP180;30134;47.866;-4.222;2023-09-19T02:27:05;101083.00;;;25.00
44429;BMP180;30134;47.866;-4.222;2023-09-19T02:29:31;101085.00;;;24.80
44429;BMP180;30134;47.866;-4.222;2023-09-19T02:32:00;101092.00;;;24.80
44429;BMP180;30134;47.866;-4.222;2023-09-19T02:34:27;101083.00;;;24.90
44429;BMP180;30134;47.866;-4.222;2023-09-19T02:36:53;101074.00;;;24.80
44429;BMP180;30134;47.866;-4.222;2023-09-19T02:39:20;101076.00;;;24.90
44429;BMP180;30134;47.866;-4.222;2023-09-19T02:41:46;101077.00;;;24.80
44429;BMP180;30134;47.866;-4.222;2023-09-19T02:44:19;101077.00;;;24.60
44429;BMP180;30134;47.866;-4.222;2023-09-19T02:46:45;101074.00;;;24.70
44429;BMP180;30134;47.866;-4.222;2023-09-19T02:49:12;101075.00;;;24.80
44429;BMP180;30134;47.866;-4.222;2023-09-19T02:51:40;101072.00;;;24.80
44429;BMP180;30134;47.866;-4.222;2023-09-19T02:54:07;101079.00;;;24.80
44429;BMP180;30134;47.866;-4.222;2023-09-19T02:56:33;101071.00;;;24.70
44429;BMP180;30134;47.866;-4.222;2023-09-19T02:59:01;101077.00;;;24.80
44429;BMP180;30134;47.866;-4.222;2023-09-19T03:01:28;101063.00;;;24.80
44429;BMP180;30134;47.866;-4.222;2023-09-19T03:03:54;101063.00;;;24.80
44429;BMP180;30134;47.866;-4.222;2023-09-19T03:06:21;101064.00;;;24.80
44429;BMP180;30134;47.866;-4.222;2023-09-19T03:08:48;101064.00;;;24.80
44429;BMP180;30134;47.866;-4.222;2023-09-19T03:11:17;101064.00;;;24.90
44429;BMP180;30134;47.866;-4.222;2023-09-19T03:13:54;101062.00;;;24.90
44429;BMP180;30134;47.866;-4.222;2023-09-19T03:16:20;101063.00;;;24.80
44429;BMP180;30134;47.866;-4.222;2023-09-19T03:18:51;101057.00;;;24.90
44429;BMP180;30134;47.866;-4.222;2023-09-19T03:21:17;101058.00;;;24.80
44429;BMP180;30134;47.866;-4.222;2023-09-19T03:23:45;101061.00;;;24.80
44429;BMP180;30134;47.866;-4.222;2023-09-19T03:26:12;101055.00;;;24.80
44429;BMP180;30134;47.866;-4.222;2023-09-19T03:28:40;101051.00;;;24.80
44429;BMP180;30134;47.866;-4.222;2023-09-19T03:31:07;101043.00;;;24.80
44429;BMP180;30134;47.866;-4.222;2023-09-19T03:33:33;101042.00;;;24.70
44429;BMP180;30134;47.866;-4.222;2023-09-19T03:36:01;101042.00;;;24.70
44429;BMP180;30134;47.866;-4.222;2023-09-19T03:38:31;101041.00;;;24.90
44429;BMP180;30134;47.866;-4.222;2023-09-19T03:40:58;101034.00;;;24.70
44429;BMP180;30134;47.866;-4.222;2023-09-19T03:43:24;101036.00;;;24.80
44429;BMP180;30134;47.866;-4.222;2023-09-19T03:45:50;101037.00;;;24.70
44429;BMP180;30134;47.866;-4.222;2023-09-19T03:48:17;101032.00;;;24.70
44429;BMP180;30134;47.866;-4.222;2023-09-19T03:50:43;101038.00;;;24.80
44429;BMP180;30134;47.866;-4.222;2023-09-19T03:53:09;101041.00;;;24.70
44429;BMP180;30134;47.866;-4.222;2023-09-19T03:55:35;101044.00;;;24.80
44429;BMP180;30134;47.866;-4.222;2023-09-19T03:58:02;101047.00;;;24.80
44429;BMP180;30134;47.866;-4.222;2023-09-19T04:00:29;101040.00;;;24.60
44429;BMP180;30134;47.866;-4.222;2023-09-19T04:02:55;101041.00;;;24.70
44429;BMP180;30134;47.866;-4.222;2023-09-19T04:05:23;101043.00;;;24.80
44429;BMP180;30134;47.866;-4.222;2023-09-19T04:07:50;101047.00;;;24.70
44429;BMP180;30134;47.866;-4.222;2023-09-19T04:10:16;101044.00;;;24.80
44429;BMP180;30134;47.866;-4.222;2023-09-19T04:12:56;101041.00;;;24.70
44429;BMP180;30134;47.866;-4.222;2023-09-19T04:15:23;101042.00;;;24.70
44429;BMP180;30134;47.866;-4.222;2023-09-19T04:17:50;101040.00;;;24.70
44429;BMP180;30134;47.866;-4.222;2023-09-19T04:20:17;101040.00;;;24.70
44429;BMP180;30134;47.866;-4.222;2023-09-19T04:22:46;101044.00;;;24.80
44429;BMP180;30134;47.866;-4.222;2023-09-19T04:25:12;101042.00;;;24.70
44429;BMP180;30134;47.866;-4.222;2023-09-19T04:27:38;101044.00;;;24.60
44429;BMP180;30134;47.866;-4.222;2023-09-19T04:30:07;101042.00;;;24.70
44429;BMP180;30134;47.866;-4.222;2023-09-19T04:32:43;101041.00;;;24.70
44429;BMP180;30134;47.866;-4.222;2023-09-19T04:35:10;101045.00;;;24.80
44429;BMP180;30134;47.866;-4.222;2023-09-19T04:37:40;101038.00;;;24.60
44429;BMP180;30134;47.866;-4.222;2023-09-19T04:40:10;101031.00;;;24.80
44429;BMP180;30134;47.866;-4.222;2023-09-19T04:42:45;101032.00;;;24.70
44429;BMP180;30134;47.866;-4.222;2023-09-19T04:45:19;101031.00;;;24.70
44429;BMP180;30134;47.866;-4.222;2023-09-19T04:47:45;101035.00;;;24.70
44429;BMP180;30134;47.866;-4.222;2023-09-19T04:50:12;101038.00;;;24.70
44429;BMP180;30134;47.866;-4.222;2023-09-19T04:52:42;101034.00;;;24.70
44429;BMP180;30134;47.866;-4.222;2023-09-19T04:55:17;101035.00;;;24.70
44429;BMP180;30134;47.866;-4.222;2023-09-19T04:57:48;101026.00;;;24.70
44429;BMP180;30134;47.866;-4.222;2023-09-19T05:00:17;101027.00;;;24.70
44429;BMP180;30134;47.866;-4.222;2023-09-19T05:02:44;101027.00;;;24.80
44429;BMP180;30134;47.866;-4.222;2023-09-19T05:05:11;101024.00;;;24.80
44429;BMP180;30134;47.866;-4.222;2023-09-19T05:07:39;101020.00;;;24.70
44429;BMP180;30134;47.866;-4.222;2023-09-19T05:10:07;101025.00;;;24.70
44429;BMP180;30134;47.866;-4.222;2023-09-19T05:12:34;101026.00;;;24.70
44429;BMP180;30134;47.866;-4.222;2023-09-19T05:15:05;101029.00;;;24.70
44429;BMP180;30134;47.866;-4.222;2023-09-19T05:17:33;101026.00;;;24.70
44429;BMP180;30134;47.866;-4.222;2023-09-19T05:20:00;101033.00;;;24.80
44429;BMP180;30134;47.866;-4.222;2023-09-19T05:22:31;101035.00;;;24.80
44429;BMP180;30134;47.866;-4.222;2023-09-19T05:24:58;101022.00;;;24.60
44429;BMP180;30134;47.866;-4.222;2023-09-19T05:27:24;101021.00;;;24.70
44429;BMP180;30134;47.866;-4.222;2023-09-19T05:29:50;101027.00;;;24.80
44429;BMP180;30134;47.866;-4.222;2023-09-19T05:32:19;101023.00;;;24.60
44429;BMP180;30134;47.866;-4.222;2023-09-19T05:34:46;101018.00;;;24.60
44429;BMP180;30134;47.866;-4.222;2023-09-19T05:37:13;101012.00;;;24.70
44429;BMP180;30134;47.866;-4.222;2023-09-19T05:39:42;101016.00;;;24.70
44429;BMP180;30134;47.866;-4.222;2023-09-19T05:42:08;101009.00;;;24.70
44429;BMP180;30134;47.866;-4.222;2023-09-19T05:44:35;101011.00;;;24.60
44429;BMP180;30134;47.866;-4.222;2023-09-19T05:47:05;101012.00;;;24.70
44429;BMP180;30134;47.866;-4.222;2023-09-19T05:49:31;101006.00;;;24.70
44429;BMP180;30134;47.866;-4.222;2023-09-19T05:51:57;101011.00;;;24.70
44429;BMP180;30134;47.866;-4.222;2023-09-19T05:54:24;101013.00;;;24.70
44429;BMP180;30134;47.866;-4.222;2023-09-19T05:56:50;101016.00;;;24.70
44429;BMP180;30134;47.866;-4.222;2023-09-19T05:59:19;101007.00;;;24.70
44429;BMP180;30134;47.866;-4.222;2023-09-19T06:01:45;101014.00;;;24.70
44429;BMP180;30134;47.866;-4.222;2023-09-19T06:04:12;101017.00;;;24.70
44429;BMP180;30134;47.866;-4.222;2023-09-19T06:06:39;101024.00;;;24.60
44429;BMP180;30134;47.866;-4.222;2023-09-19T06:09:08;101018.00;;;24.60
44429;BMP180;30134;47.866;-4.222;2023-09-19T06:11:35;101025.00;;;24.70
44429;BMP180;30134;47.866;-4.222;2023-09-19T06:14:02;101024.00;;;24.70
44429;BMP180;30134;47.866;-4.222;2023-09-19T06:16:30;101025.00;;;24.70
44429;BMP180;30134;47.866;-4.222;2023-09-19T06:18:57;101024.00;;;24.60
44429;BMP180;30134;47.866;-4.222;2023-09-19T06:21:27;101023.00;;;24.70
44429;BMP180;30134;47.866;-4.222;2023-09-19T06:23:53;101027.00;;;24.60
44429;BMP180;30134;47.866;-4.222;2023-09-19T06:26:19;101020.00;;;24.60
44429;BMP180;30134;47.866;-4.222;2023-09-19T06:28:45;101019.00;;;24.60
44429;BMP180;30134;47.866;-4.222;2023-09-19T06:31:11;101023.00;;;24.60
44429;BMP180;30134;47.866;-4.222;2023-09-19T06:33:38;101014.00;;;24.60
44429;BMP180;30134;47.866;-4.222;2023-09-19T06:36:08;101012.00;;;24.60
44429;BMP180;30134;47.866;-4.222;2023-09-19T06:38:34;101016.00;;;24.70
44429;BMP180;30134;47.866;-4.222;2023-09-19T06:41:02;101012.00;;;24.70
44429;BMP180;30134;47.866;-4.222;2023-09-19T06:43:34;101013.00;;;24.70
44429;BMP180;30134;47.866;-4.222;2023-09-19T06:46:03;101011.00;;;24.70
44429;BMP180;30134;47.866;-4.222;2023-09-19T06:48:30;101008.00;;;24.60
44429;BMP180;30134;47.866;-4.222;2023-09-19T06:50:56;101014.00;;;24.60
44429;BMP180;30134;47.866;-4.222;2023-09-19T06:53:24;101009.00;;;24.70
44429;BMP180;30134;47.866;-4.222;2023-09-19T06:55:51;101010.00;;;24.60
44429;BMP180;30134;47.866;-4.222;2023-09-19T06:58:17;101018.00;;;24.60
44429;BMP180;30134;47.866;-4.222;2023-09-19T07:00:43;101011.00;;;24.60
44429;BMP180;30134;47.866;-4.222;2023-09-19T07:03:12;101011.00;;;24.60
44429;BMP180;30134;47.866;-4.222;2023-09-19T07:05:40;101011.00;;;24.60
44429;BMP180;30134;47.866;-4.222;2023-09-19T07:08:07;101013.00;;;24.60
44429;BMP180;30134;47.866;-4.222;2023-09-19T07:10:35;101005.00;;;24.60
44429;BMP180;30134;47.866;-4.222;2023-09-19T07:13:05;101020.00;;;24.60
44429;BMP180;30134;47.866;-4.222;2023-09-19T07:15:37;101016.00;;;24.60
44429;BMP180;30134;47.866;-4.222;2023-09-19T07:18:13;101012.00;;;24.70
44429;BMP180;30134;47.866;-4.222;2023-09-19T07:20:41;101014.00;;;24.70
44429;BMP180;30134;47.866;-4.222;2023-09-19T07:23:13;101017.00;;;24.70
44429;BMP180;30134;47.866;-4.222;2023-09-19T07:25:40;101014.00;;;24.60
44429;BMP180;30134;47.866;-4.222;2023-09-19T07:28:06;101016.00;;;24.70
44429;BMP180;30134;47.866;-4.222;2023-09-19T07:30:36;101012.00;;;24.80
44429;BMP180;30134;47.866;-4.222;2023-09-19T07:33:07;101009.00;;;24.70
44429;BMP180;30134;47.866;-4.222;2023-09-19T07:35:37;101009.00;;;24.60
44429;BMP180;30134;47.866;-4.222;2023-09-19T07:38:06;101011.00;;;24.60
44429;BMP180;30134;47.866;-4.222;2023-09-19T07:40:33;101013.00;;;24.70
44429;BMP180;30134;47.866;-4.222;2023-09-19T07:43:00;101015.00;;;24.70
44429;BMP180;30134;47.866;-4.222;2023-09-19T07:45:30;101009.00;;;24.60
44429;BMP180;30134;47.866;-4.222;2023-09-19T07:47:57;101008.00;;;24.60
44429;BMP180;30134;47.866;-4.222;2023-09-19T07:50:23;101011.00;;;24.70
44429;BMP180;30134;47.866;-4.222;2023-09-19T07:52:50;101019.00;;;24.60
44429;BMP180;30134;47.866;-4.222;2023-09-19T07:55:20;101013.00;;;24.60
44429;BMP180;30134;47.866;-4.222;2023-09-19T07:57:54;101011.00;;;24.60
44429;BMP180;30134;47.866;-4.222;2023-09-19T08:00:20;101015.00;;;24.70
44429;BMP180;30134;47.866;-4.222;2023-09-19T08:02:46;101014.00;;;24.70
44429;BMP180;30134;47.866;-4.222;2023-09-19T08:05:13;101018.00;;;24.60
44429;BMP180;30134;47.866;-4.222;2023-09-19T08:07:45;101020.00;;;24.60
44429;BMP180;30134;47.866;-4.222;2023-09-19T08:10:15;101029.00;;;24.50
44429;BMP180;30134;47.866;-4.222;2023-09-19T08:12:43;101024.00;;;24.50
44429;BMP180;30134;47.866;-4.222;2023-09-19T08:15:19;101023.00;;;24.60
44429;BMP180;30134;47.866;-4.222;2023-09-19T08:17:46;101027.00;;;24.70
44429;BMP180;30134;47.866;-4.222;2023-09-19T08:20:13;101024.00;;;24.70
44429;BMP180;30134;47.866;-4.222;2023-09-19T08:22:53;101038.00;;;24.80
44429;BMP180;30134;47.866;-4.222;2023-09-19T08:25:23;101029.00;;;24.70
44429;BMP180;30134;47.866;-4.222;2023-09-19T08:27:49;101030.00;;;24.60
44429;BMP180;30134;47.866;-4.222;2023-09-19T08:30:21;101034.00;;;24.70
44429;BMP180;30134;47.866;-4.222;2023-09-19T08:33:02;101033.00;;;24.70
44429;BMP180;30134;47.866;-4.222;2023-09-19T08:35:29;101029.00;;;24.60
44429;BMP180;30134;47.866;-4.222;2023-09-19T08:37:55;101030.00;;;24.80
44429;BMP180;30134;47.866;-4.222;2023-09-19T08:40:22;101036.00;;;24.70
44429;BMP180;30134;47.866;-4.222;2023-09-19T08:42:55;101030.00;;;24.70
44429;BMP180;30134;47.866;-4.222;2023-09-19T08:45:23;101026.00;;;24.70
44429;BMP180;30134;47.866;-4.222;2023-09-19T08:48:19;101035.00;;;24.60
44429;BMP180;30134;47.866;-4.222;2023-09-19T08:51:10;101031.00;;;24.80
44429;BMP180;30134;47.866;-4.222;2023-09-19T08:53:50;101042.00;;;24.80
44429;BMP180;30134;47.866;-4.222;2023-09-19T08:56:18;101025.00;;;24.70
44429;BMP180;30134;47.866;-4.222;2023-09-19T08:59:00;101032.00;;;24.80
44429;BMP180;30134;47.866;-4.222;2023-09-19T09:01:28;101030.00;;;24.80
44429;BMP180;30134;47.866;-4.222;2023-09-19T09:03:56;101035.00;;;24.80
44429;BMP180;30134;47.866;-4.222;2023-09-19T09:06:24;101038.00;;;24.90
44429;BMP180;30134;47.866;-4.222;2023-09-19T09:08:51;101030.00;;;24.70
44429;BMP180;30134;47.866;-4.222;2023-09-19T09:11:20;101025.00;;;24.80
44429;BMP180;30134;47.866;-4.222;2023-09-19T09:13:47;101027.00;;;24.70
44429;BMP180;30134;47.866;-4.222;2023-09-19T09:16:14;101030.00;;;24.70
44429;BMP180;30134;47.866;-4.222;2023-09-19T09:18:47;101029.00;;;24.80
44429;BMP180;30134;47.866;-4.222;2023-09-19T09:21:18;101036.00;;;25.00
44429;BMP180;30134;47.866;-4.222;2023-09-19T09:23:50;101032.00;;;24.80
44429;BMP180;30134;47.866;-4.222;2023-09-19T09:26:52;101031.00;;;24.90
44429;BMP180;30134;47.866;-4.222;2023-09-19T09:29:45;101058.00;;;24.80
44429;BMP180;30134;47.866;-4.222;2023-09-19T09:32:22;101048.00;;;24.60
44429;BMP180;30134;47.866;-4.222;2023-09-19T09:34:56;101049.00;;;24.50
44429;BMP180;30134;47.866;-4.222;2023-09-19T09:37:24;101050.00;;;24.50
44429;BMP180;30134;47.866;-4.222;2023-09-19T09:40:01;101053.00;;;24.50
44429;BMP180;30134;47.866;-4.222;2023-09-19T09:42:42;101044.00;;;24.30
44429;BMP180;30134;47.866;-4.222;2023-09-19T09:45:23;101049.00;;;24.20
44429;BMP180;30134;47.866;-4.222;2023-09-19T09:48:03;101046.00;;;24.20
44429;BMP180;30134;47.866;-4.222;2023-09-19T09:50:48;101045.00;;;24.20
44429;BMP180;30134;47.866;-4.222;2023-09-19T09:53:25;101037.00;;;24.10
44429;BMP180;30134;47.866;-4.222;2023-09-19T09:56:04;101033.00;;;24.20
44429;BMP180;30134;47.866;-4.222;2023-09-19T09:58:49;101043.00;;;24.20
44429;BMP180;30134;47.866;-4.222;2023-09-19T10:01:15;101043.00;;;24.20
44429;BMP180;30134;47.866;-4.222;2023-09-19T10:03:43;101046.00;;;24.10
44429;BMP180;30134;47.866;-4.222;2023-09-19T10:06:15;101034.00;;;24.20
44429;BMP180;30134;47.866;-4.222;2023-09-19T10:09:09;101033.00;;;24.10
44429;BMP180;30134;47.866;-4.222;2023-09-19T10:11:46;101036.00;;;24.00
44429;BMP180;30134;47.866;-4.222;2023-09-19T10:14:19;101038.00;;;24.10
44429;BMP180;30134;47.866;-4.222;2023-09-19T10:16:50;101040.00;;;24.00
44429;BMP180;30134;47.866;-4.222;2023-09-19T10:19:30;101037.00;;;24.00
44429;BMP180;30134;47.866;-4.222;2023-09-19T10:22:01;101037.00;;;24.00
44429;BMP180;30134;47.866;-4.222;2023-09-19T10:24:28;101034.00;;;23.90
44429;BMP180;30134;47.866;-4.222;2023-09-19T10:26:55;101029.00;;;24.00
44429;BMP180;30134;47.866;-4.222;2023-09-19T10:29:24;101032.00;;;23.90
44429;BMP180;30134;47.866;-4.222;2023-09-19T10:31:55;101028.00;;;23.90
44429;BMP180;30134;47.866;-4.222;2023-09-19T10:34:25;101028.00;;;24.00
44429;BMP180;30134;47.866;-4.222;2023-09-19T10:36:53;101013.00;;;23.80
44429;BMP180;30134;47.866;-4.222;2023-09-19T10:39:19;101016.00;;;23.90
44429;BMP180;30134;47.866;-4.222;2023-09-19T10:41:54;101027.00;;;23.70
44429;BMP180;30134;47.866;-4.222;2023-09-19T10:44:25;101023.00;;;23.90
44429;BMP180;30134;47.866;-4.222;2023-09-19T10:46:52;101033.00;;;23.70
44429;BMP180;30134;47.866;-4.222;2023-09-19T10:49:22;101023.00;;;23.80
44429;BMP180;30134;47.866;-4.222;2023-09-19T10:51:54;101024.00;;;23.80
44429;BMP180;30134;47.866;-4.222;2023-09-19T10:54:31;101029.00;;;23.80
44429;BMP180;30134;47.866;-4.222;2023-09-19T10:57:00;101017.00;;;23.80
44429;BMP180;30134;47.866;-4.222;2023-09-19T10:59:27;101014.00;;;23.90
44429;BMP180;30134;47.866;-4.222;2023-09-19T11:02:18;101025.00;;;23.80
44429;BMP180;30134;47.866;-4.222;2023-09-19T11:04:44;101015.00;;;23.80
44429;BMP180;30134;47.866;-4.222;2023-09-19T11:07:14;101016.00;;;23.90
44429;BMP180;30134;47.866;-4.222;2023-09-19T11:09:52;101011.00;;;23.90
44429;BMP180;30134;47.866;-4.222;2023-09-19T11:15:03;101013.00;;;23.90
44429;BMP180;30134;47.866;-4.222;2023-09-19T11:17:40;101017.00;;;23.90
44429;BMP180;30134;47.866;-4.222;2023-09-19T11:30:39;101003.00;;;23.80
44429;BMP180;30134;47.866;-4.222;2023-09-19T11:33:28;101006.00;;;23.80
44429;BMP180;30134;47.866;-4.222;2023-09-19T11:36:11;101004.00;;;23.80
44429;BMP180;30134;47.866;-4.222;2023-09-19T11:43:49;100989.00;;;24.00
44429;BMP180;30134;47.866;-4.222;2023-09-19T11:46:17;101000.00;;;23.90
44429;BMP180;30134;47.866;-4.222;2023-09-19T11:48:51;101001.00;;;24.00
44429;BMP180;30134;47.866;-4.222;2023-09-19T11:51:22;101010.00;;;24.10
44429;BMP180;30134;47.866;-4.222;2023-09-19T11:53:58;100998.00;;;24.00
44429;BMP180;30134;47.866;-4.222;2023-09-19T11:56:28;100999.00;;;24.00
44429;BMP180;30134;47.866;-4.222;2023-09-19T11:58:56;100986.00;;;24.10
44429;BMP180;30134;47.866;-4.222;2023-09-19T12:01:29;100985.00;;;24.00
44429;BMP180;30134;47.866;-4.222;2023-09-19T12:03:57;100987.00;;;24.10
44429;BMP180;30134;47.866;-4.222;2023-09-19T12:06:26;100981.00;;;24.00
44429;BMP180;30134;47.866;-4.222;2023-09-19T12:08:53;100981.00;;;24.20
44429;BMP180;30134;47.866;-4.222;2023-09-19T12:11:23;100979.00;;;24.20
44429;BMP180;30134;47.866;-4.222;2023-09-19T12:13:51;100984.00;;;24.10
44429;BMP180;30134;47.866;-4.222;2023-09-19T12:16:20;100977.00;;;24.10
44429;BMP180;30134;47.866;-4.222;2023-09-19T12:18:50;100973.00;;;24.20
44429;BMP180;30134;47.866;-4.222;2023-09-19T12:21:31;100972.00;;;24.20
44429;BMP180;30134;47.866;-4.222;2023-09-19T12:23:59;100968.00;;;24.20
44429;BMP180;30134;47.866;-4.222;2023-09-19T12:26:27;100977.00;;;24.30
44429;BMP180;30134;47.866;-4.222;2023-09-19T12:28:55;100970.00;;;24.20
44429;BMP180;30134;47.866;-4.222;2023-09-19T12:31:22;100972.00;;;24.20
44429;BMP180;30134;47.866;-4.222;2023-09-19T12:33:54;100970.00;;;24.30
44429;BMP180;30134;47.866;-4.222;2023-09-19T12:36:22;100967.00;;;24.20
44429;BMP180;30134;47.866;-4.222;2023-09-19T12:38:58;100973.00;;;24.30
44429;BMP180;30134;47.866;-4.222;2023-09-19T12:41:25;100983.00;;;24.20
44429;BMP180;30134;47.866;-4.222;2023-09-19T12:43:53;100967.00;;;24.30
44429;BMP180;30134;47.866;-4.222;2023-09-19T12:46:21;100964.00;;;24.30
44429;BMP180;30134;47.866;-4.222;2023-09-19T12:49:20;100970.00;;;24.30
44429;BMP180;30134;47.866;-4.222;2023-09-19T12:51:47;100966.00;;;24.30
44429;BMP180;30134;47.866;-4.222;2023-09-19T12:54:14;100966.00;;;24.30
44429;BMP180;30134;47.866;-4.222;2023-09-19T12:56:45;100962.00;;;24.30
44429;BMP180;30134;47.866;-4.222;2023-09-19T12:59:13;100963.00;;;24.30
44429;BMP180;30134;47.866;-4.222;2023-09-19T13:01:41;100962.00;;;24.30
44429;BMP180;30134;47.866;-4.222;2023-09-19T13:04:21;100960.00;;;24.20
44429;BMP180;30134;47.866;-4.222;2023-09-19T13:06:55;100953.00;;;24.40
44429;BMP180;30134;47.866;-4.222;2023-09-19T13:09:27;100957.00;;;24.40
44429;BMP180;30134;47.866;-4.222;2023-09-19T13:12:00;100950.00;;;24.30
44429;BMP180;30134;47.866;-4.222;2023-09-19T13:14:29;100946.00;;;24.40
44429;BMP180;30134;47.866;-4.222;2023-09-19T13:17:09;100952.00;;;24.20
44429;BMP180;30134;47.866;-4.222;2023-09-19T13:19:51;100952.00;;;24.30
44429;BMP180;30134;47.866;-4.222;2023-09-19T13:22:39;100948.00;;;24.40
44429;BMP180;30134;47.866;-4.222;2023-09-19T13:25:14;100948.00;;;24.40
44429;BMP180;30134;47.866;-4.222;2023-09-19T13:27:49;100946.00;;;24.40
44429;BMP180;30134;47.866;-4.222;2023-09-19T13:30:27;100941.00;;;24.50
44429;BMP180;30134;47.866;-4.222;2023-09-19T13:33:10;100933.00;;;24.50
44429;BMP180;30134;47.866;-4.222;2023-09-19T13:35:38;100934.00;;;24.40
44429;BMP180;30134;47.866;-4.222;2023-09-19T13:38:06;100933.00;;;24.40
44429;BMP180;30134;47.866;-4.222;2023-09-19T13:40:35;100934.00;;;24.40
44429;BMP180;30134;47.866;-4.222;2023-09-19T13:43:01;100940.00;;;24.50
44429;BMP180;30134;47.866;-4.222;2023-09-19T13:45:27;100936.00;;;24.40
44429;BMP180;30134;47.866;-4.222;2023-09-19T13:47:56;100932.00;;;24.50
44429;BMP180;30134;47.866;-4.222;2023-09-19T13:50:23;100937.00;;;24.50
44429;BMP180;30134;47.866;-4.222;2023-09-19T13:52:51;100942.00;;;24.50
44429;BMP180;30134;47.866;-4.222;2023-09-19T13:55:19;100940.00;;;24.40
44429;BMP180;30134;47.866;-4.222;2023-09-19T13:57:50;100940.00;;;24.50
44429;BMP180;30134;47.866;-4.222;2023-09-19T14:00:20;100936.00;;;24.50
44429;BMP180;30134;47.866;-4.222;2023-09-19T14:02:48;100940.00;;;24.40
44429;BMP180;30134;47.866;-4.222;2023-09-19T14:05:15;100934.00;;;24.40
44429;BMP180;30134;47.866;-4.222;2023-09-19T14:07:43;100934.00;;;24.50
44429;BMP180;30134;47.866;-4.222;2023-09-19T14:10:11;100933.00;;;24.50
44429;BMP180;30134;47.866;-4.222;2023-09-19T14:12:38;100934.00;;;24.50
44429;BMP180;30134;47.866;-4.222;2023-09-19T14:15:07;100925.00;;;24.40
44429;BMP180;30134;47.866;-4.222;2023-09-19T14:17:34;100934.00;;;24.50
44429;BMP180;30134;47.866;-4.222;2023-09-19T14:20:00;100937.00;;;24.50
44429;BMP180;30134;47.866;-4.222;2023-09-19T14:22:26;100931.00;;;24.50
44429;BMP180;30134;47.866;-4.222;2023-09-19T14:24:52;100927.00;;;24.50
44429;BMP180;30134;47.866;-4.222;2023-09-19T14:27:19;100934.00;;;24.60
44429;BMP180;30134;47.866;-4.222;2023-09-19T14:29:45;100923.00;;;24.50
44429;BMP180;30134;47.866;-4.222;2023-09-19T14:32:11;100922.00;;;24.50
44429;BMP180;30134;47.866;-4.222;2023-09-19T14:34:37;100910.00;;;24.40
44429;BMP180;30134;47.866;-4.222;2023-09-19T14:37:08;100917.00;;;24.50
44429;BMP180;30134;47.866;-4.222;2023-09-19T14:39:34;100920.00;;;24.40